createdAt,value
2022-12-02T00:00:01.727Z,63.72
2022-12-02T00:02:36.672Z,63.68
2022-12-02T00:05:30.400Z,63.55
2022-12-02T00:08:16.124Z,63.39
2022-12-02T00:10:49.825Z,63.15
2022-12-02T00:13:27.081Z,63.24
2022-12-02T00:16:02.217Z,62.92
2022-12-02T00:18:35.895Z,62.95
2022-12-02T00:21:09.738Z,62.89
2022-12-02T00:23:43.373Z,63.01
2022-12-02T00:26:16.827Z,63.15
2022-12-02T00:28:50.533Z,63.27
2022-12-02T00:31:23.914Z,63.18
2022-12-02T00:34:03.614Z,63.18
2022-12-02T00:36:38.483Z,62.86
2022-12-02T00:39:12.029Z,62.65
2022-12-02T00:41:45.947Z,62.62
2022-12-02T00:44:36.876Z,62.78
2022-12-02T00:47:11.016Z,62.56
2022-12-02T00:49:44.525Z,62.41
2022-12-02T00:52:18.961Z,62.51
2022-12-02T00:54:52.652Z,62.62
2022-12-02T00:57:26.556Z,62.46
2022-12-02T01:00:00.389Z,62.52
2022-12-02T01:02:34.815Z,62.71
2022-12-02T01:05:11.034Z,62.87
2022-12-02T01:07:44.765Z,62.85
2022-12-02T01:10:19.236Z,62.69
2022-12-02T01:12:54.144Z,62.65
2022-12-02T01:15:27.655Z,62.53
2022-12-02T01:18:01.908Z,62.54
2022-12-02T01:20:35.172Z,62.64
2022-12-02T01:23:25.531Z,62.62
2022-12-02T01:25:59.448Z,62.59
2022-12-02T01:28:33.167Z,62.63
2022-12-02T01:31:07.971Z,62.42
2022-12-02T01:33:41.465Z,62.44
2022-12-02T01:36:15.055Z,62.50
2022-12-02T01:38:48.623Z,62.47
2022-12-02T01:41:22.544Z,62.53
2022-12-02T01:43:56.625Z,62.54
2022-12-02T01:46:31.120Z,62.33
2022-12-02T01:49:05.289Z,62.01
2022-12-02T01:51:38.919Z,61.81
2022-12-02T01:54:13.050Z,61.86
2022-12-02T01:56:46.801Z,62.13
2022-12-02T01:59:23.187Z,62.31
2022-12-02T02:01:56.895Z,62.05
2022-12-02T02:04:30.299Z,62.08
2022-12-02T02:07:04.026Z,62.26
2022-12-02T02:09:37.034Z,62.13
2022-12-02T02:12:10.933Z,62.17
2022-12-02T02:14:44.624Z,62.26
2022-12-02T02:17:18.010Z,62.18
2022-12-02T02:19:51.924Z,62.17
2022-12-02T02:22:31.409Z,62.03
2022-12-02T02:25:07.101Z,62.18
2022-12-02T02:27:41.148Z,62.22
2022-12-02T02:30:16.146Z,62.13
2022-12-02T02:32:51.428Z,62.01
2022-12-02T02:35:25.912Z,62.14
2022-12-02T02:37:59.934Z,62.18
2022-12-02T02:40:34.330Z,62.13
2022-12-02T02:43:08.430Z,62.05
2022-12-02T02:45:44.401Z,62.25
2022-12-02T02:48:20.112Z,62.13
2022-12-02T02:50:54.287Z,61.98
2022-12-02T02:53:30.668Z,62.03
2022-12-02T02:56:04.786Z,61.89
2022-12-02T02:58:39.260Z,61.54
2022-12-02T03:01:16.330Z,61.51
2022-12-02T03:03:55.542Z,61.51
2022-12-02T03:06:31.933Z,61.59
2022-12-02T03:09:07.429Z,61.49
2022-12-02T03:11:42.710Z,61.49
2022-12-02T03:14:17.787Z,61.61
2022-12-02T03:16:52.590Z,61.63
2022-12-02T03:19:26.494Z,61.62
2022-12-02T03:22:00.900Z,61.41
2022-12-02T03:24:36.062Z,61.11
2022-12-02T03:27:11.693Z,61.28
2022-12-02T03:29:45.917Z,61.33
2022-12-02T03:32:20.333Z,61.22
2022-12-02T03:34:54.183Z,61.13
2022-12-02T03:37:27.745Z,61.10
2022-12-02T03:40:02.570Z,61.27
2022-12-02T03:42:36.624Z,61.30
2022-12-02T03:45:12.930Z,61.26
2022-12-02T03:47:46.718Z,61.51
2022-12-02T03:50:21.288Z,61.55
2022-12-02T03:52:55.474Z,61.42
2022-12-02T03:55:28.793Z,61.65
2022-12-02T03:58:08.968Z,61.72
2022-12-02T04:00:42.327Z,61.81
2022-12-02T04:03:15.780Z,61.82
2022-12-02T04:05:49.783Z,62.00
2022-12-02T04:08:23.221Z,61.82
2022-12-02T04:10:58.170Z,61.76
2022-12-02T04:13:31.586Z,61.75
2022-12-02T04:16:05.555Z,61.84
2022-12-02T04:18:39.307Z,61.84
2022-12-02T04:21:12.822Z,61.77
2022-12-02T04:23:46.482Z,61.94
2022-12-02T04:26:20.027Z,62.05
2022-12-02T04:28:53.801Z,61.99
2022-12-02T04:31:27.337Z,61.83
2022-12-02T04:34:01.266Z,61.73
2022-12-02T04:36:34.920Z,61.68
2022-12-02T04:39:08.613Z,61.42
2022-12-02T04:41:41.979Z,61.64
2022-12-02T04:44:18.301Z,61.83
2022-12-02T04:46:52.171Z,61.81
2022-12-02T04:49:25.770Z,61.87
2022-12-02T04:51:59.651Z,61.98
2022-12-02T04:54:32.951Z,61.92
2022-12-02T04:57:06.737Z,61.84
2022-12-02T04:59:40.326Z,61.94
2022-12-02T05:02:14.059Z,62.00
2022-12-02T05:04:47.699Z,61.90
2022-12-02T05:07:21.639Z,61.90
2022-12-02T05:09:55.541Z,61.97
2022-12-02T05:12:29.147Z,62.01
2022-12-02T05:15:02.697Z,61.90
2022-12-02T05:17:41.718Z,61.99
2022-12-02T05:20:18.279Z,61.99
2022-12-02T05:22:51.817Z,61.87
2022-12-02T05:25:25.631Z,61.87
2022-12-02T05:27:59.281Z,61.47
2022-12-02T05:30:33.006Z,61.55
2022-12-02T05:33:06.712Z,62.02
2022-12-02T05:35:40.080Z,62.07
2022-12-02T05:38:13.489Z,61.98
2022-12-02T05:40:47.349Z,61.76
2022-12-02T05:43:23.693Z,61.58
2022-12-02T05:46:00.859Z,61.64
2022-12-02T05:48:38.267Z,61.65
2022-12-02T05:51:15.515Z,61.35
2022-12-02T05:53:51.751Z,61.44
2022-12-02T05:56:28.087Z,61.67
2022-12-02T05:59:07.145Z,61.55
2022-12-02T06:01:42.821Z,61.55
2022-12-02T06:04:20.524Z,61.58
2022-12-02T06:06:56.267Z,61.63
2022-12-02T06:09:32.716Z,61.69
2022-12-02T06:12:16.550Z,61.61
2022-12-02T06:14:54.071Z,61.43
2022-12-02T06:17:27.576Z,61.48
2022-12-02T06:20:01.244Z,61.54
2022-12-02T06:22:36.169Z,61.46
2022-12-02T06:25:25.914Z,61.52
2022-12-02T06:28:12.681Z,61.52
2022-12-02T06:30:46.084Z,61.56
2022-12-02T06:33:27.629Z,61.51
2022-12-02T06:36:04.327Z,61.47
2022-12-02T06:38:44.967Z,61.27
2022-12-02T06:41:21.684Z,61.26
2022-12-02T06:44:14.415Z,61.36
2022-12-02T06:46:48.730Z,61.14
2022-12-02T06:49:24.014Z,61.21
2022-12-02T06:52:01.848Z,61.29
2022-12-02T06:54:36.434Z,61.08
2022-12-02T06:57:13.346Z,60.91
2022-12-02T06:59:50.812Z,61.07
2022-12-02T07:02:29.745Z,61.17
2022-12-02T07:05:03.666Z,61.14
2022-12-02T07:07:39.043Z,61.06
2022-12-02T07:10:22.295Z,60.97
2022-12-02T07:12:58.781Z,61.02
2022-12-02T07:15:33.942Z,60.90
2022-12-02T07:18:20.717Z,60.77
2022-12-02T07:20:54.083Z,60.57
2022-12-02T07:23:29.065Z,60.40
2022-12-02T07:26:03.918Z,60.43
2022-12-02T07:28:40.249Z,60.76
2022-12-02T07:31:21.374Z,60.98
2022-12-02T07:33:54.687Z,60.71
2022-12-02T07:36:28.527Z,60.92
2022-12-02T07:39:06.686Z,61.18
2022-12-02T07:41:43.512Z,61.46
2022-12-02T07:44:17.421Z,61.42
2022-12-02T07:46:51.153Z,61.25
2022-12-02T07:49:25.056Z,61.49
2022-12-02T07:51:58.455Z,61.62
2022-12-02T07:54:31.637Z,61.57
2022-12-02T07:57:05.323Z,61.41
2022-12-02T07:59:39.207Z,61.40
2022-12-02T08:02:12.998Z,61.41
2022-12-02T08:04:47.020Z,61.44
2022-12-02T08:07:20.449Z,61.46
2022-12-02T08:09:53.597Z,61.40
2022-12-02T08:12:27.365Z,61.32
2022-12-02T08:15:00.748Z,61.36
2022-12-02T08:17:34.653Z,61.41
2022-12-02T08:20:10.470Z,61.26
2022-12-02T08:22:44.109Z,61.36
2022-12-02T08:25:18.200Z,61.37
2022-12-02T08:27:51.590Z,61.49
2022-12-02T08:30:25.582Z,61.39
2022-12-02T08:32:59.143Z,61.33
2022-12-02T08:35:32.474Z,61.36
2022-12-02T08:38:05.767Z,61.31
2022-12-02T08:40:39.664Z,61.20
2022-12-02T08:43:13.509Z,61.27
2022-12-02T08:45:47.305Z,61.18
2022-12-02T08:48:20.708Z,61.12
2022-12-02T08:50:55.251Z,61.14
2022-12-02T08:53:29.478Z,61.08
2022-12-02T08:56:03.293Z,60.94
2022-12-02T08:58:36.906Z,61.00
2022-12-02T09:01:10.568Z,61.28
2022-12-02T09:03:44.027Z,61.28
2022-12-02T09:06:18.008Z,60.97
2022-12-02T09:08:51.854Z,60.98
2022-12-02T09:11:25.741Z,61.07
2022-12-02T09:13:59.274Z,61.07
2022-12-02T09:16:33.054Z,61.33
2022-12-02T09:19:06.488Z,61.31
2022-12-02T09:21:39.813Z,61.40
2022-12-02T09:24:13.621Z,61.35
2022-12-02T09:26:47.226Z,61.40
2022-12-02T09:29:20.994Z,61.20
2022-12-02T09:31:54.622Z,61.30
2022-12-02T09:34:28.228Z,61.33
2022-12-02T09:37:01.830Z,61.31
2022-12-02T09:39:38.757Z,61.11
2022-12-02T09:42:13.983Z,61.14
2022-12-02T09:44:49.047Z,61.30
2022-12-02T09:47:23.319Z,61.43
2022-12-02T09:49:57.112Z,61.57
2022-12-02T09:52:31.152Z,61.51
2022-12-02T09:55:13.044Z,61.40
2022-12-02T09:57:47.526Z,61.28
2022-12-02T10:00:23.746Z,61.39
2022-12-02T10:02:58.333Z,61.40
2022-12-02T10:05:34.460Z,61.38
2022-12-02T10:08:14.252Z,61.27
2022-12-02T10:10:48.293Z,61.28
2022-12-02T10:13:24.879Z,61.27
2022-12-02T10:16:00.039Z,61.24
2022-12-02T10:18:35.719Z,61.16
2022-12-02T10:21:09.613Z,61.29
2022-12-02T10:24:00.167Z,61.00
2022-12-02T10:26:46.976Z,60.72
2022-12-02T10:29:29.407Z,60.99
2022-12-02T10:32:04.692Z,60.84
2022-12-02T10:34:39.000Z,60.63
2022-12-02T10:37:25.927Z,60.88
2022-12-02T10:40:12.071Z,61.00
2022-12-02T10:42:46.509Z,61.18
2022-12-02T10:45:23.680Z,61.53
2022-12-02T10:48:18.434Z,61.34
2022-12-02T10:50:52.029Z,61.38
2022-12-02T10:53:30.138Z,61.26
2022-12-02T10:56:03.918Z,60.97
2022-12-02T10:58:37.246Z,61.05
2022-12-02T11:01:14.314Z,61.15
2022-12-02T11:03:47.859Z,61.20
2022-12-02T11:06:23.380Z,61.24
2022-12-02T11:09:24.155Z,61.37
2022-12-02T11:11:54.627Z,61.47
2022-12-02T11:14:57.887Z,61.43
2022-12-02T11:17:52.332Z,61.23
2022-12-02T11:20:43.324Z,61.48
2022-12-02T11:23:25.605Z,61.60
2022-12-02T11:26:06.212Z,61.60
2022-12-02T11:29:16.877Z,61.33
2022-12-02T11:32:17.565Z,61.20
2022-12-02T11:37:48.350Z,61.17
2022-12-02T11:41:00.746Z,61.25
2022-12-02T11:43:56.437Z,61.20
2022-12-02T11:46:45.495Z,61.17
2022-12-02T11:49:34.840Z,61.13
2022-12-02T11:52:25.677Z,61.23
2022-12-02T11:55:13.943Z,61.39
2022-12-02T11:57:48.959Z,61.46
2022-12-02T12:00:35.820Z,61.37
2022-12-02T12:03:15.125Z,61.22
2022-12-02T12:06:09.021Z,61.15
2022-12-02T12:08:45.016Z,61.18
2022-12-02T12:11:26.959Z,61.16
2022-12-02T12:14:08.310Z,61.24
2022-12-02T12:16:44.475Z,61.18
2022-12-02T12:19:36.511Z,61.07
2022-12-02T12:22:27.730Z,61.40
2022-12-02T12:25:34.322Z,61.67
2022-12-02T12:28:24.167Z,61.39
2022-12-02T12:30:57.922Z,61.41
2022-12-02T12:33:32.115Z,61.43
2022-12-02T12:36:05.969Z,61.38
2022-12-02T12:38:39.258Z,61.32
2022-12-02T12:41:12.741Z,61.26
2022-12-02T12:43:45.938Z,61.36
2022-12-02T12:46:19.495Z,61.59
2022-12-02T12:48:52.989Z,61.44
2022-12-02T12:51:27.082Z,61.36
2022-12-02T12:54:00.461Z,61.22
2022-12-02T12:56:34.269Z,61.22
2022-12-02T12:59:07.547Z,61.25
2022-12-02T13:01:40.928Z,61.27
2022-12-02T13:04:14.633Z,61.45
2022-12-02T13:06:48.826Z,61.31
2022-12-02T13:09:22.248Z,61.41
2022-12-02T13:11:55.810Z,61.41
2022-12-02T13:14:29.829Z,61.43
2022-12-02T13:17:03.341Z,61.44
2022-12-02T13:19:37.380Z,61.43
2022-12-02T13:22:11.866Z,61.48
2022-12-02T13:24:45.527Z,61.58
2022-12-02T13:27:19.047Z,61.73
2022-12-02T13:29:52.889Z,61.67
2022-12-02T13:32:26.739Z,61.57
2022-12-02T13:35:00.578Z,61.60
2022-12-02T13:37:34.066Z,61.42
2022-12-02T13:40:10.950Z,61.40
2022-12-02T13:42:44.382Z,61.44
2022-12-02T13:45:18.235Z,61.31
2022-12-02T13:47:51.387Z,61.23
2022-12-02T13:50:25.130Z,61.26
2022-12-02T13:52:58.679Z,61.25
2022-12-02T13:55:32.362Z,61.41
2022-12-02T13:58:06.175Z,61.40
2022-12-02T14:00:39.466Z,61.28
2022-12-02T14:03:13.052Z,61.35
2022-12-02T14:05:46.783Z,61.33
2022-12-02T14:08:20.456Z,61.54
2022-12-02T14:10:54.091Z,61.68
2022-12-02T14:13:27.950Z,61.74
2022-12-02T14:16:01.703Z,61.78
2022-12-02T14:18:35.030Z,61.93
2022-12-02T14:21:09.189Z,61.92
2022-12-02T14:23:42.819Z,61.95
2022-12-02T14:26:17.680Z,61.91
2022-12-02T14:28:51.561Z,61.90
2022-12-02T14:31:26.821Z,62.08
2022-12-02T14:34:11.391Z,62.10
2022-12-02T14:36:46.560Z,62.06
2022-12-02T14:39:20.384Z,62.14
2022-12-02T14:41:53.856Z,62.31
2022-12-02T14:44:27.473Z,62.37
2022-12-02T14:47:01.721Z,62.48
2022-12-02T14:49:40.542Z,62.49
2022-12-02T14:52:15.963Z,62.45
2022-12-02T14:54:50.233Z,62.33
2022-12-02T14:57:24.163Z,62.32
2022-12-02T14:59:57.737Z,62.38
2022-12-02T15:02:31.691Z,62.56
2022-12-02T15:05:11.003Z,62.66
2022-12-02T15:07:48.252Z,62.62
2022-12-02T15:10:22.552Z,62.67
2022-12-02T15:12:56.534Z,62.84
2022-12-02T15:15:37.905Z,62.80
2022-12-02T15:18:12.028Z,62.73
2022-12-02T15:20:45.726Z,62.78
2022-12-02T15:23:20.214Z,62.82
2022-12-02T15:25:53.947Z,63.10
2022-12-02T15:28:27.986Z,63.02
2022-12-02T15:31:02.104Z,63.01
2022-12-02T15:33:35.978Z,63.21
2022-12-02T15:36:10.709Z,63.12
2022-12-02T15:38:45.396Z,63.22
2022-12-02T15:41:21.703Z,63.23
2022-12-02T15:43:55.916Z,63.24
2022-12-02T15:46:30.545Z,63.21
2022-12-02T15:49:05.829Z,63.13
2022-12-02T15:51:39.973Z,63.29
2022-12-02T15:54:13.753Z,63.27
2022-12-02T15:56:54.105Z,63.34
2022-12-02T15:59:29.498Z,63.37
2022-12-02T16:02:03.782Z,63.38
2022-12-02T16:04:37.986Z,63.26
2022-12-02T16:07:16.136Z,63.23
2022-12-02T16:09:50.640Z,63.31
2022-12-02T16:12:25.410Z,63.41
2022-12-02T16:15:01.064Z,63.51
2022-12-02T16:17:39.183Z,63.49
2022-12-02T16:20:16.276Z,63.64
2022-12-02T16:22:50.704Z,63.79
2022-12-02T16:25:24.998Z,63.72
2022-12-02T16:27:59.132Z,63.74
2022-12-02T16:30:34.332Z,63.81
2022-12-02T16:33:08.552Z,63.72
2022-12-02T16:35:42.612Z,63.68
2022-12-02T16:38:17.319Z,63.86
2022-12-02T16:40:50.784Z,64.07
2022-12-02T16:43:24.156Z,64.06
2022-12-02T16:46:00.513Z,64.11
2022-12-02T16:48:35.271Z,64.02
2022-12-02T16:51:09.589Z,64.16
2022-12-02T16:53:43.770Z,64.14
2022-12-02T16:56:17.598Z,64.18
2022-12-02T16:58:52.291Z,64.23
2022-12-02T17:01:27.021Z,64.12
2022-12-02T17:04:00.907Z,64.26
2022-12-02T17:06:34.343Z,64.33
2022-12-02T17:09:09.798Z,64.38
2022-12-02T17:11:43.455Z,64.33
2022-12-02T17:14:16.861Z,64.51
2022-12-02T17:16:50.890Z,64.78
2022-12-02T17:19:24.542Z,64.88
2022-12-02T17:21:59.301Z,64.92
2022-12-02T17:24:33.942Z,64.88
2022-12-02T17:27:07.625Z,64.87
2022-12-02T17:29:41.434Z,64.96
2022-12-02T17:32:15.027Z,65.04
2022-12-02T17:34:50.281Z,65.21
2022-12-02T17:37:24.294Z,65.20
2022-12-02T17:39:57.984Z,65.12
2022-12-02T17:42:32.178Z,65.42
2022-12-02T17:45:06.683Z,65.71
2022-12-02T17:47:41.786Z,65.66
2022-12-02T17:50:19.042Z,65.66
2022-12-02T17:52:53.438Z,65.61
2022-12-02T17:55:27.578Z,65.67
2022-12-02T17:58:01.639Z,65.75
2022-12-02T18:00:35.272Z,65.71
2022-12-02T18:03:09.676Z,65.63
2022-12-02T18:05:45.290Z,65.75
2022-12-02T18:08:20.776Z,65.77
2022-12-02T18:10:54.620Z,65.82
2022-12-02T18:13:28.909Z,65.94
2022-12-02T18:16:02.971Z,65.99
2022-12-02T18:18:37.851Z,65.91
2022-12-02T18:21:11.933Z,65.91
2022-12-02T18:23:46.306Z,65.99
2022-12-02T18:26:21.047Z,66.22
2022-12-02T18:28:55.872Z,66.20
2022-12-02T18:31:30.949Z,66.15
2022-12-02T18:34:06.352Z,66.39
2022-12-02T18:36:41.844Z,66.47
2022-12-02T18:39:15.750Z,66.66
2022-12-02T18:41:50.119Z,66.59
2022-12-02T18:44:24.501Z,66.63
2022-12-02T18:46:59.290Z,66.62
2022-12-02T18:49:38.018Z,66.36
2022-12-02T18:52:16.548Z,66.37
2022-12-02T18:54:51.947Z,66.51
2022-12-02T18:57:26.911Z,66.59
2022-12-02T19:00:01.470Z,66.43
2022-12-02T19:02:35.860Z,66.47
2022-12-02T19:05:12.539Z,66.44
2022-12-02T19:07:48.509Z,66.54
2022-12-02T19:10:24.427Z,66.74
2022-12-02T19:13:02.795Z,66.59
2022-12-02T19:15:41.206Z,66.52
2022-12-02T19:18:15.978Z,66.42
2022-12-02T19:20:50.913Z,66.45
2022-12-02T19:23:32.028Z,66.45
2022-12-02T19:26:06.509Z,66.62
2022-12-02T19:28:42.068Z,66.60
2022-12-02T19:31:18.319Z,66.82
2022-12-02T19:33:53.201Z,66.70
2022-12-02T19:36:29.071Z,66.60
2022-12-02T19:39:04.047Z,66.77
2022-12-02T19:41:39.193Z,66.70
2022-12-02T19:44:14.468Z,66.85
2022-12-02T19:46:49.795Z,66.91
2022-12-02T19:49:25.121Z,66.88
2022-12-02T19:52:00.625Z,66.91
2022-12-02T19:54:35.398Z,67.16
2022-12-02T19:57:11.144Z,67.29
2022-12-02T19:59:46.702Z,67.39
2022-12-02T20:02:22.463Z,67.29
2022-12-02T20:04:58.341Z,67.19
2022-12-02T20:07:34.168Z,67.23
2022-12-02T20:10:21.769Z,67.08
2022-12-02T20:12:58.556Z,66.98
2022-12-02T20:15:33.123Z,67.03
2022-12-02T20:18:09.940Z,66.93
2022-12-02T20:20:44.990Z,66.93
2022-12-02T20:23:19.491Z,66.71
2022-12-02T20:25:54.567Z,66.76
2022-12-02T20:28:29.614Z,66.92
2022-12-02T20:31:04.649Z,66.94
2022-12-02T20:33:44.378Z,66.96
2022-12-02T20:36:18.417Z,67.10
2022-12-02T20:38:53.437Z,67.21
2022-12-02T20:41:28.482Z,67.39
2022-12-02T20:44:03.460Z,67.44
2022-12-02T20:46:38.204Z,67.47
2022-12-02T20:49:12.907Z,67.29
2022-12-02T20:51:48.103Z,67.24
2022-12-02T20:54:22.529Z,67.33
2022-12-02T20:56:59.755Z,67.15
2022-12-02T20:59:35.027Z,67.20
2022-12-02T21:02:12.157Z,67.35
2022-12-02T21:04:49.523Z,67.47
2022-12-02T21:07:25.513Z,67.40
2022-12-02T21:10:00.617Z,67.37
2022-12-02T21:12:36.357Z,67.40
2022-12-02T21:15:12.781Z,67.19
2022-12-02T21:17:47.722Z,67.10
2022-12-02T21:20:22.269Z,67.22
2022-12-02T21:22:57.107Z,67.26
2022-12-02T21:25:34.971Z,67.10
2022-12-02T21:28:09.984Z,67.21
2022-12-02T21:30:44.104Z,67.19
2022-12-02T21:33:18.377Z,67.26
2022-12-02T21:35:52.789Z,67.35
2022-12-02T21:38:26.908Z,67.18
2022-12-02T21:41:00.629Z,67.14
2022-12-02T21:43:34.009Z,67.04
2022-12-02T21:46:07.782Z,66.90
2022-12-02T21:48:42.144Z,66.68
2022-12-02T21:51:16.296Z,66.73
2022-12-02T21:53:50.020Z,66.92
2022-12-02T21:56:24.721Z,66.91
2022-12-02T21:58:58.497Z,66.95
2022-12-02T22:01:43.151Z,66.86
2022-12-02T22:04:18.705Z,67.08
2022-12-02T22:07:12.471Z,67.11
2022-12-02T22:09:46.359Z,67.06
2022-12-02T22:12:20.728Z,67.13
2022-12-02T22:14:54.460Z,66.88
2022-12-02T22:17:28.166Z,66.84
2022-12-02T22:20:01.694Z,66.90
2022-12-02T22:22:35.963Z,67.07
2022-12-02T22:25:11.667Z,67.13
2022-12-02T22:27:46.344Z,67.25
2022-12-02T22:30:20.549Z,67.09
2022-12-02T22:32:53.821Z,66.90
2022-12-02T22:35:27.486Z,66.80
2022-12-02T22:38:01.300Z,66.65
2022-12-02T22:40:35.151Z,66.59
2022-12-02T22:43:08.971Z,66.59
2022-12-02T22:45:42.931Z,66.73
2022-12-02T22:48:16.263Z,66.79
2022-12-02T22:50:49.928Z,66.69
2022-12-02T22:53:23.255Z,66.67
2022-12-02T22:55:56.583Z,66.75
2022-12-02T22:58:30.341Z,66.64
2022-12-02T23:01:03.808Z,66.66
2022-12-02T23:03:37.462Z,66.57
2022-12-02T23:06:10.816Z,66.53
2022-12-02T23:08:44.223Z,66.44
2022-12-02T23:11:18.236Z,66.57
2022-12-02T23:13:51.822Z,66.62
2022-12-02T23:16:25.567Z,66.67
2022-12-02T23:18:59.506Z,66.67
2022-12-02T23:21:33.321Z,66.60
2022-12-02T23:24:07.857Z,66.61
2022-12-02T23:26:41.324Z,66.68
2022-12-02T23:29:15.120Z,66.71
2022-12-02T23:31:48.625Z,66.66
2022-12-02T23:34:22.065Z,66.63
2022-12-02T23:36:55.547Z,66.44
2022-12-02T23:39:28.795Z,66.44
2022-12-02T23:42:02.265Z,66.52
2022-12-02T23:44:36.014Z,66.63
2022-12-02T23:47:09.814Z,66.58
2022-12-02T23:49:43.397Z,66.56
2022-12-02T23:52:16.918Z,66.55
2022-12-02T23:54:50.863Z,66.62
2022-12-02T23:57:24.287Z,66.59
2022-12-02T23:59:57.851Z,66.56
